Terminal Aerodrome Forecast
Issued by NWS Charleston, WV

Current Version | Previous Version | Text Only | Print | Product List | Glossary Off
Versions: 1 2 3 4 5 6 7 8 9 10 11 12 13 14 15 16 17 18 19 20 21 22 23 24 25 26 27 28 29 30 31

000
FTUS41 KRLX 010204 AAA
TAFBKW
TAF AMD
KBKW 010204Z 0102/0124 33010G20KT 5SM SHRA VCTS BKN040CB
      TEMPO 0102/0103 2SM TSRA BKN025CB
     FM010400 25004KT 6SM BR BKN025
     FM010700 24005KT 5SM BR BKN020
     FM011200 23004KT P6SM BKN010
     FM011500 26005KT P6SM BKN015
     FM011900 28008KT P6SM BKN035=

USA.gov is the U.S. government's official web portal to all federal, state and local government web resources and services.